sensor_id;sensor_type;location;lat;lon;timestamp;P1;durP1;ratioP1;P2;durP2;ratioP2
18376;SDS011;9315;52.624;13.544;2023-08-07T00:00:04;4.80;;;2.27;;
18376;SDS011;9315;52.624;13.544;2023-08-07T00:02:35;5.37;;;2.10;;
18376;SDS011;9315;52.624;13.544;2023-08-07T00:05:03;4.50;;;2.37;;
18376;SDS011;9315;52.624;13.544;2023-08-07T00:07:32;4.87;;;2.37;;
18376;SDS011;9315;52.624;13.544;2023-08-07T00:09:59;4.83;;;2.27;;
18376;SDS011;9315;52.624;13.544;2023-08-07T00:12:27;5.17;;;2.00;;
18376;SDS011;9315;52.624;13.544;2023-08-07T00:14:55;2.23;;;1.70;;
18376;SDS011;9315;52.624;13.544;2023-08-07T00:17:22;3.37;;;2.13;;
18376;SDS011;9315;52.624;13.544;2023-08-07T00:19:49;5.53;;;2.17;;
18376;SDS011;9315;52.624;13.544;2023-08-07T00:22:16;5.53;;;2.23;;
18376;SDS011;9315;52.624;13.544;2023-08-07T00:24:43;5.33;;;1.80;;
18376;SDS011;9315;52.624;13.544;2023-08-07T00:27:11;6.20;;;2.37;;
18376;SDS011;9315;52.624;13.544;2023-08-07T00:29:38;6.33;;;2.30;;
18376;SDS011;9315;52.624;13.544;2023-08-07T00:32:06;6.80;;;2.67;;
18376;SDS011;9315;52.624;13.544;2023-08-07T00:34:33;8.03;;;2.23;;
18376;SDS011;9315;52.624;13.544;2023-08-07T00:37:00;5.33;;;2.90;;
18376;SDS011;9315;52.624;13.544;2023-08-07T00:39:27;6.87;;;3.13;;
18376;SDS011;9315;52.624;13.544;2023-08-07T00:41:55;5.30;;;2.73;;
18376;SDS011;9315;52.624;13.544;2023-08-07T00:44:22;6.10;;;2.50;;
18376;SDS011;9315;52.624;13.544;2023-08-07T00:46:50;6.70;;;2.50;;
18376;SDS011;9315;52.624;13.544;2023-08-07T00:49:18;7.03;;;2.43;;
18376;SDS011;9315;52.624;13.544;2023-08-07T00:51:46;4.23;;;2.37;;
18376;SDS011;9315;52.624;13.544;2023-08-07T00:54:18;6.90;;;2.70;;
18376;SDS011;9315;52.624;13.544;2023-08-07T00:56:46;4.27;;;2.00;;
18376;SDS011;9315;52.624;13.544;2023-08-07T00:59:15;4.63;;;2.20;;
18376;SDS011;9315;52.624;13.544;2023-08-07T01:01:42;4.43;;;2.20;;
18376;SDS011;9315;52.624;13.544;2023-08-07T01:04:10;6.30;;;2.30;;
18376;SDS011;9315;52.624;13.544;2023-08-07T01:06:37;3.60;;;2.17;;
18376;SDS011;9315;52.624;13.544;2023-08-07T01:09:06;5.87;;;2.43;;
18376;SDS011;9315;52.624;13.544;2023-08-07T01:14:28;4.47;;;2.33;;
18376;SDS011;9315;52.624;13.544;2023-08-07T01:17:16;5.97;;;2.30;;
18376;SDS011;9315;52.624;13.544;2023-08-07T01:19:47;3.87;;;2.17;;
18376;SDS011;9315;52.624;13.544;2023-08-07T01:22:18;3.20;;;2.10;;
18376;SDS011;9315;52.624;13.544;2023-08-07T01:24:48;6.67;;;2.40;;
18376;SDS011;9315;52.624;13.544;2023-08-07T01:36:06;4.60;;;1.97;;
18376;SDS011;9315;52.624;13.544;2023-08-07T01:38:35;3.67;;;2.30;;
18376;SDS011;9315;52.624;13.544;2023-08-07T01:41:02;3.43;;;2.07;;
18376;SDS011;9315;52.624;13.544;2023-08-07T01:43:30;7.57;;;3.20;;
18376;SDS011;9315;52.624;13.544;2023-08-07T01:46:00;8.43;;;2.80;;
18376;SDS011;9315;52.624;13.544;2023-08-07T01:48:29;7.47;;;3.50;;
18376;SDS011;9315;52.624;13.544;2023-08-07T01:50:56;8.63;;;3.30;;
18376;SDS011;9315;52.624;13.544;2023-08-07T01:53:23;7.50;;;3.40;;
18376;SDS011;9315;52.624;13.544;2023-08-07T01:55:51;5.40;;;2.70;;
18376;SDS011;9315;52.624;13.544;2023-08-07T01:58:18;7.20;;;2.63;;
18376;SDS011;9315;52.624;13.544;2023-08-07T02:00:45;4.60;;;2.90;;
18376;SDS011;9315;52.624;13.544;2023-08-07T02:03:12;6.53;;;2.87;;
18376;SDS011;9315;52.624;13.544;2023-08-07T02:05:41;6.53;;;2.30;;
18376;SDS011;9315;52.624;13.544;2023-08-07T02:08:10;3.57;;;2.30;;
18376;SDS011;9315;52.624;13.544;2023-08-07T02:10:38;4.87;;;2.57;;
18376;SDS011;9315;52.624;13.544;2023-08-07T02:13:05;3.13;;;2.20;;
18376;SDS011;9315;52.624;13.544;2023-08-07T02:15:38;7.53;;;2.63;;
18376;SDS011;9315;52.624;13.544;2023-08-07T02:18:05;4.50;;;2.63;;
18376;SDS011;9315;52.624;13.544;2023-08-07T02:20:32;5.47;;;3.00;;
18376;SDS011;9315;52.624;13.544;2023-08-07T02:23:00;10.47;;;2.70;;
18376;SDS011;9315;52.624;13.544;2023-08-07T02:25:27;10.67;;;3.20;;
18376;SDS011;9315;52.624;13.544;2023-08-07T02:27:54;6.70;;;2.63;;
18376;SDS011;9315;52.624;13.544;2023-08-07T02:30:22;4.20;;;2.40;;
18376;SDS011;9315;52.624;13.544;2023-08-07T02:32:49;6.03;;;3.00;;
18376;SDS011;9315;52.624;13.544;2023-08-07T02:35:18;3.93;;;2.67;;
18376;SDS011;9315;52.624;13.544;2023-08-07T02:37:45;3.90;;;3.07;;
18376;SDS011;9315;52.624;13.544;2023-08-07T02:40:12;7.40;;;2.87;;
18376;SDS011;9315;52.624;13.544;2023-08-07T02:42:41;5.80;;;3.60;;
18376;SDS011;9315;52.624;13.544;2023-08-07T02:45:11;7.60;;;3.27;;
18376;SDS011;9315;52.624;13.544;2023-08-07T02:47:38;4.93;;;3.10;;
18376;SDS011;9315;52.624;13.544;2023-08-07T02:50:05;7.23;;;3.33;;
18376;SDS011;9315;52.624;13.544;2023-08-07T02:52:33;9.80;;;3.30;;
18376;SDS011;9315;52.624;13.544;2023-08-07T02:55:00;5.83;;;3.50;;
18376;SDS011;9315;52.624;13.544;2023-08-07T02:57:27;8.23;;;3.43;;
18376;SDS011;9315;52.624;13.544;2023-08-07T02:59:55;11.30;;;4.10;;
18376;SDS011;9315;52.624;13.544;2023-08-07T03:02:22;8.37;;;4.03;;
18376;SDS011;9315;52.624;13.544;2023-08-07T03:04:49;9.10;;;3.90;;
18376;SDS011;9315;52.624;13.544;2023-08-07T03:07:16;8.80;;;3.87;;
18376;SDS011;9315;52.624;13.544;2023-08-07T03:09:46;7.13;;;3.53;;
18376;SDS011;9315;52.624;13.544;2023-08-07T03:12:13;8.70;;;4.40;;
18376;SDS011;9315;52.624;13.544;2023-08-07T03:14:40;8.37;;;3.97;;
18376;SDS011;9315;52.624;13.544;2023-08-07T03:17:07;9.63;;;4.37;;
18376;SDS011;9315;52.624;13.544;2023-08-07T03:19:34;6.63;;;4.40;;
18376;SDS011;9315;52.624;13.544;2023-08-07T03:22:02;9.70;;;4.33;;
18376;SDS011;9315;52.624;13.544;2023-08-07T03:24:30;6.57;;;4.20;;
18376;SDS011;9315;52.624;13.544;2023-08-07T03:26:57;9.37;;;4.17;;
18376;SDS011;9315;52.624;13.544;2023-08-07T03:29:24;4.90;;;3.57;;
18376;SDS011;9315;52.624;13.544;2023-08-07T03:31:51;6.17;;;4.20;;
18376;SDS011;9315;52.624;13.544;2023-08-07T03:34:19;9.30;;;4.07;;
18376;SDS011;9315;52.624;13.544;2023-08-07T03:36:49;9.60;;;3.77;;
18376;SDS011;9315;52.624;13.544;2023-08-07T03:39:17;6.57;;;4.40;;
18376;SDS011;9315;52.624;13.544;2023-08-07T03:41:44;10.37;;;3.83;;
18376;SDS011;9315;52.624;13.544;2023-08-07T03:44:11;6.70;;;4.10;;
18376;SDS011;9315;52.624;13.544;2023-08-07T03:46:38;6.63;;;4.50;;
18376;SDS011;9315;52.624;13.544;2023-08-07T03:49:06;9.77;;;4.33;;
18376;SDS011;9315;52.624;13.544;2023-08-07T03:51:33;9.03;;;4.10;;
18376;SDS011;9315;52.624;13.544;2023-08-07T03:54:00;7.50;;;3.97;;
18376;SDS011;9315;52.624;13.544;2023-08-07T03:56:27;8.70;;;4.00;;
18376;SDS011;9315;52.624;13.544;2023-08-07T03:58:54;8.80;;;4.30;;
18376;SDS011;9315;52.624;13.544;2023-08-07T04:01:21;8.63;;;3.93;;
18376;SDS011;9315;52.624;13.544;2023-08-07T04:03:48;7.43;;;3.83;;
18376;SDS011;9315;52.624;13.544;2023-08-07T04:06:16;13.40;;;4.77;;
18376;SDS011;9315;52.624;13.544;2023-08-07T04:08:46;7.83;;;4.23;;
18376;SDS011;9315;52.624;13.544;2023-08-07T04:11:13;8.83;;;4.57;;
18376;SDS011;9315;52.624;13.544;2023-08-07T04:13:40;7.60;;;4.20;;
18376;SDS011;9315;52.624;13.544;2023-08-07T04:16:08;5.50;;;3.77;;
18376;SDS011;9315;52.624;13.544;2023-08-07T04:18:35;6.80;;;3.73;;
18376;SDS011;9315;52.624;13.544;2023-08-07T04:21:02;9.30;;;3.63;;
18376;SDS011;9315;52.624;13.544;2023-08-07T04:23:30;6.27;;;3.43;;
18376;SDS011;9315;52.624;13.544;2023-08-07T04:25:57;10.77;;;3.70;;
18376;SDS011;9315;52.624;13.544;2023-08-07T04:28:27;5.33;;;3.40;;
18376;SDS011;9315;52.624;13.544;2023-08-07T04:30:55;5.47;;;3.53;;
18376;SDS011;9315;52.624;13.544;2023-08-07T04:33:23;5.90;;;3.47;;
18376;SDS011;9315;52.624;13.544;2023-08-07T04:35:50;5.40;;;3.43;;
18376;SDS011;9315;52.624;13.544;2023-08-07T04:38:17;5.00;;;3.30;;
18376;SDS011;9315;52.624;13.544;2023-08-07T04:40:49;12.17;;;3.90;;
18376;SDS011;9315;52.624;13.544;2023-08-07T04:43:17;8.47;;;3.27;;
18376;SDS011;9315;52.624;13.544;2023-08-07T04:45:48;8.00;;;3.83;;
18376;SDS011;9315;52.624;13.544;2023-08-07T04:48:15;6.43;;;3.63;;
18376;SDS011;9315;52.624;13.544;2023-08-07T04:50:44;10.23;;;3.77;;
18376;SDS011;9315;52.624;13.544;2023-08-07T04:53:11;8.67;;;3.53;;
18376;SDS011;9315;52.624;13.544;2023-08-07T04:55:41;5.20;;;2.93;;
18376;SDS011;9315;52.624;13.544;2023-08-07T04:58:09;10.30;;;3.70;;
18376;SDS011;9315;52.624;13.544;2023-08-07T05:00:36;6.43;;;3.30;;
18376;SDS011;9315;52.624;13.544;2023-08-07T05:03:05;6.13;;;2.80;;
18376;SDS011;9315;52.624;13.544;2023-08-07T05:05:32;5.77;;;3.10;;
18376;SDS011;9315;52.624;13.544;2023-08-07T05:07:59;10.53;;;3.50;;
18376;SDS011;9315;52.624;13.544;2023-08-07T05:10:27;5.73;;;2.67;;
18376;SDS011;9315;52.624;13.544;2023-08-07T05:12:54;6.07;;;2.67;;
18376;SDS011;9315;52.624;13.544;2023-08-07T05:15:22;5.27;;;2.73;;
18376;SDS011;9315;52.624;13.544;2023-08-07T05:17:53;6.07;;;2.90;;
18376;SDS011;9315;52.624;13.544;2023-08-07T05:20:20;5.93;;;2.67;;
18376;SDS011;9315;52.624;13.544;2023-08-07T05:22:48;5.60;;;2.50;;
18376;SDS011;9315;52.624;13.544;2023-08-07T05:25:16;6.53;;;3.10;;
18376;SDS011;9315;52.624;13.544;2023-08-07T05:27:44;4.97;;;2.67;;
18376;SDS011;9315;52.624;13.544;2023-08-07T05:30:12;5.57;;;3.00;;
18376;SDS011;9315;52.624;13.544;2023-08-07T05:32:41;7.93;;;3.23;;
18376;SDS011;9315;52.624;13.544;2023-08-07T05:35:08;5.93;;;2.40;;
18376;SDS011;9315;52.624;13.544;2023-08-07T05:37:35;4.57;;;2.50;;
18376;SDS011;9315;52.624;13.544;2023-08-07T05:40:04;5.63;;;2.73;;
18376;SDS011;9315;52.624;13.544;2023-08-07T05:42:32;5.13;;;2.53;;
18376;SDS011;9315;52.624;13.544;2023-08-07T05:45:00;3.27;;;2.57;;
18376;SDS011;9315;52.624;13.544;2023-08-07T05:47:28;5.27;;;2.70;;
18376;SDS011;9315;52.624;13.544;2023-08-07T05:49:55;3.37;;;2.37;;
18376;SDS011;9315;52.624;13.544;2023-08-07T05:52:22;6.50;;;2.73;;
18376;SDS011;9315;52.624;13.544;2023-08-07T05:54:49;5.17;;;2.60;;
18376;SDS011;9315;52.624;13.544;2023-08-07T05:57:17;6.70;;;2.70;;
18376;SDS011;9315;52.624;13.544;2023-08-07T05:59:45;5.50;;;2.10;;
18376;SDS011;9315;52.624;13.544;2023-08-07T06:02:12;8.43;;;2.20;;
18376;SDS011;9315;52.624;13.544;2023-08-07T06:04:39;4.87;;;2.53;;
18376;SDS011;9315;52.624;13.544;2023-08-07T06:07:07;4.57;;;2.43;;
18376;SDS011;9315;52.624;13.544;2023-08-07T06:09:36;5.77;;;2.10;;
18376;SDS011;9315;52.624;13.544;2023-08-07T06:12:04;3.80;;;1.90;;
18376;SDS011;9315;52.624;13.544;2023-08-07T06:14:31;6.10;;;3.60;;
18376;SDS011;9315;52.624;13.544;2023-08-07T06:16:59;5.13;;;2.00;;
18376;SDS011;9315;52.624;13.544;2023-08-07T06:19:27;2.77;;;1.87;;
18376;SDS011;9315;52.624;13.544;2023-08-07T06:21:58;2.67;;;1.87;;
18376;SDS011;9315;52.624;13.544;2023-08-07T06:24:27;4.70;;;1.87;;
18376;SDS011;9315;52.624;13.544;2023-08-07T06:26:54;6.70;;;2.13;;
18376;SDS011;9315;52.624;13.544;2023-08-07T06:29:22;1.73;;;1.50;;
18376;SDS011;9315;52.624;13.544;2023-08-07T06:31:49;6.47;;;2.10;;
18376;SDS011;9315;52.624;13.544;2023-08-07T06:34:16;5.63;;;1.67;;
18376;SDS011;9315;52.624;13.544;2023-08-07T06:36:43;6.27;;;1.80;;
18376;SDS011;9315;52.624;13.544;2023-08-07T06:39:12;4.60;;;2.00;;
18376;SDS011;9315;52.624;13.544;2023-08-07T06:41:39;5.67;;;1.83;;
18376;SDS011;9315;52.624;13.544;2023-08-07T06:44:06;4.40;;;1.70;;
18376;SDS011;9315;52.624;13.544;2023-08-07T06:46:33;2.40;;;1.50;;
18376;SDS011;9315;52.624;13.544;2023-08-07T06:49:00;10.27;;;1.83;;
18376;SDS011;9315;52.624;13.544;2023-08-07T06:51:28;3.40;;;1.63;;
18376;SDS011;9315;52.624;13.544;2023-08-07T06:53:55;3.67;;;1.57;;
18376;SDS011;9315;52.624;13.544;2023-08-07T06:56:23;5.93;;;1.33;;
18376;SDS011;9315;52.624;13.544;2023-08-07T06:58:50;7.33;;;1.80;;
18376;SDS011;9315;52.624;13.544;2023-08-07T07:01:17;6.40;;;1.60;;
18376;SDS011;9315;52.624;13.544;2023-08-07T07:03:44;3.80;;;1.70;;
18376;SDS011;9315;52.624;13.544;2023-08-07T07:06:13;6.33;;;1.50;;
18376;SDS011;9315;52.624;13.544;2023-08-07T07:08:40;4.03;;;1.30;;
18376;SDS011;9315;52.624;13.544;2023-08-07T07:11:08;2.97;;;1.33;;
18376;SDS011;9315;52.624;13.544;2023-08-07T07:13:36;4.03;;;1.43;;
18376;SDS011;9315;52.624;13.544;2023-08-07T07:16:03;4.40;;;1.33;;
18376;SDS011;9315;52.624;13.544;2023-08-07T07:18:30;2.60;;;1.30;;
18376;SDS011;9315;52.624;13.544;2023-08-07T07:20:58;2.87;;;1.37;;
18376;SDS011;9315;52.624;13.544;2023-08-07T07:23:26;4.90;;;1.37;;
18376;SDS011;9315;52.624;13.544;2023-08-07T07:25:54;5.87;;;1.43;;
18376;SDS011;9315;52.624;13.544;2023-08-07T07:28:23;3.60;;;1.20;;
18376;SDS011;9315;52.624;13.544;2023-08-07T07:30:50;1.83;;;1.20;;
18376;SDS011;9315;52.624;13.544;2023-08-07T07:33:17;4.43;;;1.33;;
18376;SDS011;9315;52.624;13.544;2023-08-07T07:35:45;3.78;;;1.30;;
18376;SDS011;9315;52.624;13.544;2023-08-07T07:38:12;3.13;;;1.07;;
18376;SDS011;9315;52.624;13.544;2023-08-07T07:40:39;2.63;;;1.00;;
18376;SDS011;9315;52.624;13.544;2023-08-07T07:43:07;4.75;;;1.27;;
18376;SDS011;9315;52.624;13.544;2023-08-07T07:45:34;2.13;;;1.23;;
18376;SDS011;9315;52.624;13.544;2023-08-07T07:48:02;2.83;;;1.20;;
18376;SDS011;9315;52.624;13.544;2023-08-07T07:50:30;6.97;;;1.23;;
18376;SDS011;9315;52.624;13.544;2023-08-07T07:52:57;4.22;;;1.20;;
18376;SDS011;9315;52.624;13.544;2023-08-07T07:55:25;3.80;;;1.40;;
18376;SDS011;9315;52.624;13.544;2023-08-07T07:57:53;3.08;;;1.17;;
18376;SDS011;9315;52.624;13.544;2023-08-07T08:00:24;2.17;;;1.00;;
18376;SDS011;9315;52.624;13.544;2023-08-07T08:02:53;1.42;;;1.10;;
18376;SDS011;9315;52.624;13.544;2023-08-07T08:05:21;2.88;;;1.10;;
18376;SDS011;9315;52.624;13.544;2023-08-07T08:07:48;5.82;;;0.88;;
18376;SDS011;9315;52.624;13.544;2023-08-07T08:10:16;5.35;;;1.10;;
18376;SDS011;9315;52.624;13.544;2023-08-07T08:12:43;3.25;;;1.10;;
18376;SDS011;9315;52.624;13.544;2023-08-07T08:15:10;4.80;;;1.20;;
18376;SDS011;9315;52.624;13.544;2023-08-07T08:17:37;2.08;;;0.90;;
18376;SDS011;9315;52.624;13.544;2023-08-07T08:20:06;4.63;;;0.70;;
18376;SDS011;9315;52.624;13.544;2023-08-07T08:22:34;3.85;;;1.20;;
18376;SDS011;9315;52.624;13.544;2023-08-07T08:25:01;5.28;;;0.80;;
18376;SDS011;9315;52.624;13.544;2023-08-07T08:27:32;4.72;;;1.30;;
18376;SDS011;9315;52.624;13.544;2023-08-07T08:30:03;4.07;;;1.00;;
18376;SDS011;9315;52.624;13.544;2023-08-07T08:32:31;4.38;;;1.13;;
18376;SDS011;9315;52.624;13.544;2023-08-07T08:34:59;3.17;;;1.23;;
18376;SDS011;9315;52.624;13.544;2023-08-07T08:37:27;3.25;;;1.17;;
18376;SDS011;9315;52.624;13.544;2023-08-07T08:39:55;6.68;;;1.40;;
18376;SDS011;9315;52.624;13.544;2023-08-07T08:42:22;1.40;;;0.83;;
18376;SDS011;9315;52.624;13.544;2023-08-07T08:44:55;2.75;;;1.10;;
18376;SDS011;9315;52.624;13.544;2023-08-07T08:47:25;4.25;;;1.35;;
18376;SDS011;9315;52.624;13.544;2023-08-07T08:49:54;3.90;;;1.13;;
18376;SDS011;9315;52.624;13.544;2023-08-07T08:52:35;3.72;;;1.10;;
18376;SDS011;9315;52.624;13.544;2023-08-07T08:55:07;3.47;;;1.33;;
18376;SDS011;9315;52.624;13.544;2023-08-07T08:57:37;5.88;;;1.20;;
18376;SDS011;9315;52.624;13.544;2023-08-07T09:00:06;4.00;;;1.10;;
18376;SDS011;9315;52.624;13.544;2023-08-07T09:02:47;4.47;;;1.27;;
18376;SDS011;9315;52.624;13.544;2023-08-07T09:05:17;5.18;;;1.40;;
18376;SDS011;9315;52.624;13.544;2023-08-07T09:07:49;4.00;;;1.20;;
18376;SDS011;9315;52.624;13.544;2023-08-07T09:10:16;7.17;;;1.27;;
18376;SDS011;9315;52.624;13.544;2023-08-07T09:13:03;2.38;;;1.27;;
18376;SDS011;9315;52.624;13.544;2023-08-07T09:15:35;6.47;;;1.23;;
18376;SDS011;9315;52.624;13.544;2023-08-07T09:18:05;11.87;;;1.40;;
18376;SDS011;9315;52.624;13.544;2023-08-07T09:20:35;3.20;;;1.10;;
18376;SDS011;9315;52.624;13.544;2023-08-07T09:23:07;4.43;;;1.13;;
18376;SDS011;9315;52.624;13.544;2023-08-07T09:25:34;3.22;;;1.10;;
18376;SDS011;9315;52.624;13.544;2023-08-07T09:28:05;3.35;;;1.15;;
18376;SDS011;9315;52.624;13.544;2023-08-07T09:30:34;5.05;;;1.42;;
18376;SDS011;9315;52.624;13.544;2023-08-07T09:33:03;5.93;;;1.20;;
18376;SDS011;9315;52.624;13.544;2023-08-07T09:35:31;2.90;;;0.95;;
18376;SDS011;9315;52.624;13.544;2023-08-07T09:38:00;1.67;;;0.82;;
18376;SDS011;9315;52.624;13.544;2023-08-07T09:40:28;3.75;;;0.90;;
18376;SDS011;9315;52.624;13.544;2023-08-07T09:42:57;2.15;;;0.80;;
18376;SDS011;9315;52.624;13.544;2023-08-07T09:45:27;5.00;;;1.00;;
18376;SDS011;9315;52.624;13.544;2023-08-07T09:47:56;5.90;;;1.50;;
18376;SDS011;9315;52.624;13.544;2023-08-07T09:50:29;2.85;;;1.00;;
18376;SDS011;9315;52.624;13.544;2023-08-07T09:52:58;2.22;;;1.20;;
18376;SDS011;9315;52.624;13.544;2023-08-07T09:55:28;5.78;;;1.02;;
18376;SDS011;9315;52.624;13.544;2023-08-07T09:57:55;2.85;;;1.15;;
18376;SDS011;9315;52.624;13.544;2023-08-07T10:00:22;3.47;;;1.30;;
18376;SDS011;9315;52.624;13.544;2023-08-07T10:02:50;3.83;;;1.10;;
18376;SDS011;9315;52.624;13.544;2023-08-07T10:05:18;1.88;;;0.90;;
18376;SDS011;9315;52.624;13.544;2023-08-07T10:07:45;11.50;;;1.17;;
18376;SDS011;9315;52.624;13.544;2023-08-07T10:10:13;2.63;;;1.00;;
18376;SDS011;9315;52.624;13.544;2023-08-07T10:12:41;2.72;;;1.00;;
18376;SDS011;9315;52.624;13.544;2023-08-07T10:15:12;5.32;;;1.23;;
18376;SDS011;9315;52.624;13.544;2023-08-07T10:17:40;3.28;;;0.80;;
18376;SDS011;9315;52.624;13.544;2023-08-07T10:20:08;2.63;;;0.90;;
18376;SDS011;9315;52.624;13.544;2023-08-07T10:22:37;2.53;;;1.15;;
18376;SDS011;9315;52.624;13.544;2023-08-07T10:25:06;1.73;;;0.85;;
18376;SDS011;9315;52.624;13.544;2023-08-07T10:27:35;2.47;;;1.10;;
18376;SDS011;9315;52.624;13.544;2023-08-07T10:30:06;5.63;;;1.50;;
18376;SDS011;9315;52.624;13.544;2023-08-07T10:32:40;3.78;;;0.90;;
18376;SDS011;9315;52.624;13.544;2023-08-07T10:35:09;3.25;;;1.08;;
18376;SDS011;9315;52.624;13.544;2023-08-07T10:37:52;3.85;;;1.13;;
18376;SDS011;9315;52.624;13.544;2023-08-07T10:40:20;1.77;;;0.80;;
18376;SDS011;9315;52.624;13.544;2023-08-07T10:42:55;2.65;;;0.70;;
18376;SDS011;9315;52.624;13.544;2023-08-07T10:45:37;4.00;;;0.75;;
18376;SDS011;9315;52.624;13.544;2023-08-07T10:48:10;4.80;;;0.88;;
18376;SDS011;9315;52.624;13.544;2023-08-07T10:51:13;2.00;;;0.90;;
18376;SDS011;9315;52.624;13.544;2023-08-07T10:53:34;3.83;;;0.90;;
18376;SDS011;9315;52.624;13.544;2023-08-07T10:56:09;2.35;;;0.80;;
18376;SDS011;9315;52.624;13.544;2023-08-07T10:58:56;5.63;;;0.80;;
18376;SDS011;9315;52.624;13.544;2023-08-07T11:04:14;2.78;;;0.93;;
18376;SDS011;9315;52.624;13.544;2023-08-07T11:06:42;3.53;;;0.90;;
18376;SDS011;9315;52.624;13.544;2023-08-07T11:09:13;4.50;;;1.00;;
18376;SDS011;9315;52.624;13.544;2023-08-07T11:14:14;2.88;;;1.27;;
18376;SDS011;9315;52.624;13.544;2023-08-07T11:16:45;2.20;;;0.98;;
18376;SDS011;9315;52.624;13.544;2023-08-07T11:19:16;3.80;;;1.00;;
18376;SDS011;9315;52.624;13.544;2023-08-07T11:21:52;4.82;;;0.82;;
18376;SDS011;9315;52.624;13.544;2023-08-07T11:24:23;4.95;;;1.02;;
18376;SDS011;9315;52.624;13.544;2023-08-07T11:26:53;4.25;;;1.13;;
18376;SDS011;9315;52.624;13.544;2023-08-07T11:29:24;3.88;;;1.00;;
18376;SDS011;9315;52.624;13.544;2023-08-07T11:31:54;3.05;;;0.88;;
18376;SDS011;9315;52.624;13.544;2023-08-07T11:34:22;3.67;;;0.88;;
18376;SDS011;9315;52.624;13.544;2023-08-07T11:36:51;3.95;;;0.98;;
18376;SDS011;9315;52.624;13.544;2023-08-07T11:39:21;2.67;;;0.80;;
18376;SDS011;9315;52.624;13.544;2023-08-07T11:41:50;1.73;;;0.80;;
18376;SDS011;9315;52.624;13.544;2023-08-07T11:44:19;2.72;;;0.63;;
18376;SDS011;9315;52.624;13.544;2023-08-07T11:46:46;2.03;;;0.77;;
18376;SDS011;9315;52.624;13.544;2023-08-07T11:49:13;4.28;;;0.90;;
18376;SDS011;9315;52.624;13.544;2023-08-07T11:51:41;4.22;;;0.90;;
18376;SDS011;9315;52.624;13.544;2023-08-07T11:54:13;5.80;;;1.20;;
18376;SDS011;9315;52.624;13.544;2023-08-07T11:56:42;3.28;;;1.20;;
18376;SDS011;9315;52.624;13.544;2023-08-07T11:59:09;4.00;;;0.93;;
18376;SDS011;9315;52.624;13.544;2023-08-07T12:01:39;4.65;;;1.20;;
18376;SDS011;9315;52.624;13.544;2023-08-07T12:06:36;6.10;;;1.20;;
18376;SDS011;9315;52.624;13.544;2023-08-07T12:09:08;7.03;;;1.25;;
18376;SDS011;9315;52.624;13.544;2023-08-07T12:11:40;5.38;;;1.13;;
18376;SDS011;9315;52.624;13.544;2023-08-07T12:14:07;16.33;;;1.92;;
18376;SDS011;9315;52.624;13.544;2023-08-07T12:16:39;8.38;;;1.35;;
18376;SDS011;9315;52.624;13.544;2023-08-07T12:19:11;4.93;;;1.13;;
18376;SDS011;9315;52.624;13.544;2023-08-07T12:21:40;5.65;;;1.15;;
18376;SDS011;9315;52.624;13.544;2023-08-07T12:24:08;4.75;;;1.13;;
18376;SDS011;9315;52.624;13.544;2023-08-07T12:26:35;5.28;;;1.10;;
18376;SDS011;9315;52.624;13.544;2023-08-07T12:29:02;4.68;;;1.40;;
18376;SDS011;9315;52.624;13.544;2023-08-07T12:31:29;6.78;;;1.45;;
18376;SDS011;9315;52.624;13.544;2023-08-07T12:33:56;3.33;;;1.05;;
18376;SDS011;9315;52.624;13.544;2023-08-07T12:36:44;8.25;;;1.27;;
18376;SDS011;9315;52.624;13.544;2023-08-07T12:39:11;3.40;;;1.20;;
18376;SDS011;9315;52.624;13.544;2023-08-07T12:41:38;7.35;;;1.58;;
18376;SDS011;9315;52.624;13.544;2023-08-07T12:44:08;3.55;;;1.20;;
18376;SDS011;9315;52.624;13.544;2023-08-07T12:46:35;4.28;;;1.13;;
18376;SDS011;9315;52.624;13.544;2023-08-07T12:49:08;5.00;;;1.23;;
18376;SDS011;9315;52.624;13.544;2023-08-07T12:51:35;2.65;;;1.10;;
18376;SDS011;9315;52.624;13.544;2023-08-07T12:54:03;9.40;;;1.55;;
18376;SDS011;9315;52.624;13.544;2023-08-07T12:56:30;4.70;;;1.42;;
18376;SDS011;9315;52.624;13.544;2023-08-07T12:58:58;4.65;;;1.10;;
18376;SDS011;9315;52.624;13.544;2023-08-07T13:01:25;6.80;;;1.10;;
18376;SDS011;9315;52.624;13.544;2023-08-07T13:03:52;6.55;;;1.48;;
18376;SDS011;9315;52.624;13.544;2023-08-07T13:06:20;7.55;;;1.50;;
18376;SDS011;9315;52.624;13.544;2023-08-07T13:08:47;8.77;;;1.35;;
18376;SDS011;9315;52.624;13.544;2023-08-07T13:11:17;3.92;;;1.10;;
18376;SDS011;9315;52.624;13.544;2023-08-07T13:13:44;4.70;;;1.40;;
18376;SDS011;9315;52.624;13.544;2023-08-07T13:16:12;5.55;;;1.48;;
18376;SDS011;9315;52.624;13.544;2023-08-07T13:18:39;3.90;;;1.30;;
18376;SDS011;9315;52.624;13.544;2023-08-07T13:21:06;3.95;;;1.30;;
18376;SDS011;9315;52.624;13.544;2023-08-07T13:23:34;5.82;;;1.70;;
18376;SDS011;9315;52.624;13.544;2023-08-07T13:26:03;7.85;;;1.60;;
18376;SDS011;9315;52.624;13.544;2023-08-07T13:28:33;7.85;;;1.83;;
18376;SDS011;9315;52.624;13.544;2023-08-07T13:31:00;6.43;;;1.80;;
18376;SDS011;9315;52.624;13.544;2023-08-07T13:33:27;3.72;;;1.45;;
18376;SDS011;9315;52.624;13.544;2023-08-07T13:35:55;7.97;;;1.70;;
18376;SDS011;9315;52.624;13.544;2023-08-07T13:38:23;7.05;;;1.20;;
18376;SDS011;9315;52.624;13.544;2023-08-07T13:40:51;6.15;;;1.33;;
18376;SDS011;9315;52.624;13.544;2023-08-07T13:43:18;9.70;;;1.70;;
18376;SDS011;9315;52.624;13.544;2023-08-07T13:45:45;5.45;;;1.50;;
18376;SDS011;9315;52.624;13.544;2023-08-07T13:48:13;9.70;;;1.65;;
18376;SDS011;9315;52.624;13.544;2023-08-07T13:50:40;10.90;;;2.17;;
18376;SDS011;9315;52.624;13.544;2023-08-07T13:53:07;5.20;;;1.85;;
18376;SDS011;9315;52.624;13.544;2023-08-07T13:55:41;6.50;;;1.85;;
18376;SDS011;9315;52.624;13.544;2023-08-07T13:58:10;6.43;;;1.83;;
18376;SDS011;9315;52.624;13.544;2023-08-07T14:00:37;8.18;;;1.73;;
18376;SDS011;9315;52.624;13.544;2023-08-07T14:03:07;3.95;;;1.38;;
18376;SDS011;9315;52.624;13.544;2023-08-07T14:05:37;6.50;;;1.70;;
18376;SDS011;9315;52.624;13.544;2023-08-07T14:08:04;9.00;;;2.35;;
18376;SDS011;9315;52.624;13.544;2023-08-07T14:10:35;8.65;;;2.22;;
18376;SDS011;9315;52.624;13.544;2023-08-07T14:13:02;6.55;;;1.40;;
18376;SDS011;9315;52.624;13.544;2023-08-07T14:15:30;6.95;;;1.75;;
18376;SDS011;9315;52.624;13.544;2023-08-07T14:17:57;12.45;;;2.20;;
18376;SDS011;9315;52.624;13.544;2023-08-07T14:20:25;7.22;;;1.52;;
18376;SDS011;9315;52.624;13.544;2023-08-07T14:22:52;8.30;;;2.03;;
18376;SDS011;9315;52.624;13.544;2023-08-07T14:25:34;15.15;;;2.00;;
18376;SDS011;9315;52.624;13.544;2023-08-07T14:28:01;14.57;;;2.10;;
18376;SDS011;9315;52.624;13.544;2023-08-07T14:30:28;6.88;;;1.73;;
18376;SDS011;9315;52.624;13.544;2023-08-07T14:32:58;8.57;;;2.00;;
18376;SDS011;9315;52.624;13.544;2023-08-07T14:35:25;7.38;;;1.90;;
18376;SDS011;9315;52.624;13.544;2023-08-07T14:37:52;5.10;;;1.30;;
18376;SDS011;9315;52.624;13.544;2023-08-07T14:40:20;5.20;;;1.42;;
18376;SDS011;9315;52.624;13.544;2023-08-07T14:42:47;8.07;;;1.73;;
18376;SDS011;9315;52.624;13.544;2023-08-07T14:45:20;8.10;;;1.92;;
18376;SDS011;9315;52.624;13.544;2023-08-07T14:47:49;7.97;;;2.80;;
18376;SDS011;9315;52.624;13.544;2023-08-07T14:50:17;4.63;;;1.67;;
18376;SDS011;9315;52.624;13.544;2023-08-07T14:52:44;7.65;;;1.70;;
18376;SDS011;9315;52.624;13.544;2023-08-07T14:55:11;8.38;;;1.55;;
18376;SDS011;9315;52.624;13.544;2023-08-07T14:57:38;4.28;;;1.50;;
18376;SDS011;9315;52.624;13.544;2023-08-07T15:00:06;9.60;;;1.80;;
18376;SDS011;9315;52.624;13.544;2023-08-07T15:02:35;7.15;;;1.67;;
18376;SDS011;9315;52.624;13.544;2023-08-07T15:05:02;7.88;;;1.80;;
18376;SDS011;9315;52.624;13.544;2023-08-07T15:07:30;8.90;;;1.60;;
18376;SDS011;9315;52.624;13.544;2023-08-07T15:09:57;5.43;;;1.65;;
18376;SDS011;9315;52.624;13.544;2023-08-07T15:12:24;7.85;;;1.45;;
18376;SDS011;9315;52.624;13.544;2023-08-07T15:14:52;7.22;;;1.60;;